<?xml version="1.0" encoding="UTF-8" standalone="no" ?>
<gpx xmlns="http://www.topografix.com/GPX/1/1" xmlns:xsi="http://www.w3.org/2001/XMLSchema-instance" xsi:schemaLocation="http://www.topografix.com/GPX/1/1 http://www.topografix.com/GPX/1/1/gpx.xsd" version="1.1" creator="VisuGPX - https://www.visugpx.com">
  <metadata>
    <name>Tour de Batère</name>
    <desc><![CDATA[44 km / 1200 D  / 5-6h
1ère route à droite le long du cimetière (Arles s/ Tech)]]></desc>
  </metadata>
  <trk>
    <name><![CDATA[1154465674_tour.de.batere]]></name>
    <trkseg>
      <trkpt lat="42.46248" lon="2.6382">
        <ele>239</ele>
        <time>2005-10-30T08:28:04Z</time>
      </trkpt>
      <trkpt lat="42.46252" lon="2.63837">
        <ele>281</ele>
        <time>2005-10-30T08:32:03Z</time>
      </trkpt>
      <trkpt lat="42.46222" lon="2.63783">
        <ele>270</ele>
        <time>2005-10-30T08:37:52Z</time>
      </trkpt>
      <trkpt lat="42.46259" lon="2.63809">
        <ele>272</ele>
        <time>2005-10-30T08:38:12Z</time>
      </trkpt>
      <trkpt lat="42.46362" lon="2.63691">
        <ele>275</ele>
        <time>2005-10-30T08:38:59Z</time>
      </trkpt>
      <trkpt lat="42.46394" lon="2.63616">
        <ele>275</ele>
        <time>2005-10-30T08:39:21Z</time>
      </trkpt>
      <trkpt lat="42.46383" lon="2.63577">
        <ele>276</ele>
        <time>2005-10-30T08:39:30Z</time>
      </trkpt>
      <trkpt lat="42.46396" lon="2.63517">
        <ele>276</ele>
        <time>2005-10-30T08:39:44Z</time>
      </trkpt>
      <trkpt lat="42.46426" lon="2.63507">
        <ele>277</ele>
        <time>2005-10-30T08:39:52Z</time>
      </trkpt>
      <trkpt lat="42.46486" lon="2.63423">
        <ele>279</ele>
        <time>2005-10-30T08:40:18Z</time>
      </trkpt>
      <trkpt lat="42.4649" lon="2.63217">
        <ele>279</ele>
        <time>2005-10-30T08:41:03Z</time>
      </trkpt>
      <trkpt lat="42.46506" lon="2.63226">
        <ele>279</ele>
        <time>2005-10-30T08:41:08Z</time>
      </trkpt>
      <trkpt lat="42.46531" lon="2.63371">
        <ele>282</ele>
        <time>2005-10-30T08:41:43Z</time>
      </trkpt>
      <trkpt lat="42.46527" lon="2.63414">
        <ele>283</ele>
        <time>2005-10-30T08:41:54Z</time>
      </trkpt>
      <trkpt lat="42.46591" lon="2.63271">
        <ele>295</ele>
        <time>2005-10-30T08:42:38Z</time>
      </trkpt>
      <trkpt lat="42.46583" lon="2.63215">
        <ele>299</ele>
        <time>2005-10-30T08:42:52Z</time>
      </trkpt>
      <trkpt lat="42.4675" lon="2.6305">
        <ele>310</ele>
        <time>2005-10-30T08:43:45Z</time>
      </trkpt>
      <trkpt lat="42.46821" lon="2.62908">
        <ele>317</ele>
        <time>2005-10-30T08:44:26Z</time>
      </trkpt>
      <trkpt lat="42.46845" lon="2.62874">
        <ele>320</ele>
        <time>2005-10-30T08:44:38Z</time>
      </trkpt>
      <trkpt lat="42.46896" lon="2.62833">
        <ele>325</ele>
        <time>2005-10-30T08:44:57Z</time>
      </trkpt>
      <trkpt lat="42.46956" lon="2.6273">
        <ele>330</ele>
        <time>2005-10-30T08:45:26Z</time>
      </trkpt>
      <trkpt lat="42.46969" lon="2.62657">
        <ele>333</ele>
        <time>2005-10-30T08:45:44Z</time>
      </trkpt>
      <trkpt lat="42.46997" lon="2.6261">
        <ele>333</ele>
        <time>2005-10-30T08:45:59Z</time>
      </trkpt>
      <trkpt lat="42.46986" lon="2.62539">
        <ele>342</ele>
        <time>2005-10-30T08:46:16Z</time>
      </trkpt>
      <trkpt lat="42.47027" lon="2.62427">
        <ele>346</ele>
        <time>2005-10-30T08:46:46Z</time>
      </trkpt>
      <trkpt lat="42.4701" lon="2.62284">
        <ele>352</ele>
        <time>2005-10-30T08:47:20Z</time>
      </trkpt>
      <trkpt lat="42.47027" lon="2.62198">
        <ele>362</ele>
        <time>2005-10-30T08:47:42Z</time>
      </trkpt>
      <trkpt lat="42.47106" lon="2.62136">
        <ele>372</ele>
        <time>2005-10-30T08:48:10Z</time>
      </trkpt>
      <trkpt lat="42.47149" lon="2.62071">
        <ele>376</ele>
        <time>2005-10-30T08:48:27Z</time>
      </trkpt>
      <trkpt lat="42.47224" lon="2.62002">
        <ele>379</ele>
        <time>2005-10-30T08:48:50Z</time>
      </trkpt>
      <trkpt lat="42.4734" lon="2.61957">
        <ele>382</ele>
        <time>2005-10-30T08:49:21Z</time>
      </trkpt>
      <trkpt lat="42.47527" lon="2.61938">
        <ele>383</ele>
        <time>2005-10-30T08:50:06Z</time>
      </trkpt>
      <trkpt lat="42.47525" lon="2.61839">
        <ele>385</ele>
        <time>2005-10-30T08:50:23Z</time>
      </trkpt>
      <trkpt lat="42.47497" lon="2.61739">
        <ele>384</ele>
        <time>2005-10-30T08:50:39Z</time>
      </trkpt>
      <trkpt lat="42.47475" lon="2.61732">
        <ele>385</ele>
        <time>2005-10-30T08:50:44Z</time>
      </trkpt>
      <trkpt lat="42.47445" lon="2.61796">
        <ele>387</ele>
        <time>2005-10-30T08:50:57Z</time>
      </trkpt>
      <trkpt lat="42.4743" lon="2.61794">
        <ele>388</ele>
        <time>2005-10-30T08:51:02Z</time>
      </trkpt>
      <trkpt lat="42.47362" lon="2.61732">
        <ele>389</ele>
        <time>2005-10-30T08:51:28Z</time>
      </trkpt>
      <trkpt lat="42.47261" lon="2.617">
        <ele>399</ele>
        <time>2005-10-30T08:52:04Z</time>
      </trkpt>
      <trkpt lat="42.47375" lon="2.61698">
        <ele>409</ele>
        <time>2005-10-30T08:52:49Z</time>
      </trkpt>
      <trkpt lat="42.47392" lon="2.61683">
        <ele>410</ele>
        <time>2005-10-30T08:52:59Z</time>
      </trkpt>
      <trkpt lat="42.47402" lon="2.61528">
        <ele>412</ele>
        <time>2005-10-30T08:53:44Z</time>
      </trkpt>
      <trkpt lat="42.4742" lon="2.61509">
        <ele>413</ele>
        <time>2005-10-30T08:53:55Z</time>
      </trkpt>
      <trkpt lat="42.4748" lon="2.61498">
        <ele>414</ele>
        <time>2005-10-30T08:54:21Z</time>
      </trkpt>
      <trkpt lat="42.47572" lon="2.61374">
        <ele>414</ele>
        <time>2005-10-30T08:55:22Z</time>
      </trkpt>
      <trkpt lat="42.47611" lon="2.61393">
        <ele>416</ele>
        <time>2005-10-30T08:55:48Z</time>
      </trkpt>
      <trkpt lat="42.47675" lon="2.61374">
        <ele>427</ele>
        <time>2005-10-30T08:56:19Z</time>
      </trkpt>
      <trkpt lat="42.47756" lon="2.61419">
        <ele>437</ele>
        <time>2005-10-30T08:56:59Z</time>
      </trkpt>
      <trkpt lat="42.47812" lon="2.61327">
        <ele>438</ele>
        <time>2005-10-30T08:57:35Z</time>
      </trkpt>
      <trkpt lat="42.47844" lon="2.6132">
        <ele>445</ele>
        <time>2005-10-30T08:57:48Z</time>
      </trkpt>
      <trkpt lat="42.47892" lon="2.61224">
        <ele>446</ele>
        <time>2005-10-30T08:58:29Z</time>
      </trkpt>
      <trkpt lat="42.48042" lon="2.61318">
        <ele>468</ele>
        <time>2005-10-30T08:59:40Z</time>
      </trkpt>
      <trkpt lat="42.48173" lon="2.61251">
        <ele>481</ele>
        <time>2005-10-30T09:00:36Z</time>
      </trkpt>
      <trkpt lat="42.48224" lon="2.61256">
        <ele>498</ele>
        <time>2005-10-30T09:00:57Z</time>
      </trkpt>
      <trkpt lat="42.48289" lon="2.61204">
        <ele>513</ele>
        <time>2005-10-30T09:01:28Z</time>
      </trkpt>
      <trkpt lat="42.48261" lon="2.61118">
        <ele>524</ele>
        <time>2005-10-30T09:01:56Z</time>
      </trkpt>
      <trkpt lat="42.48269" lon="2.61035">
        <ele>526</ele>
        <time>2005-10-30T09:02:20Z</time>
      </trkpt>
      <trkpt lat="42.48297" lon="2.61011">
        <ele>535</ele>
        <time>2005-10-30T09:02:28Z</time>
      </trkpt>
      <trkpt lat="42.48321" lon="2.60942">
        <ele>542</ele>
        <time>2005-10-30T09:02:51Z</time>
      </trkpt>
      <trkpt lat="42.48321" lon="2.60807">
        <ele>548</ele>
        <time>2005-10-30T09:03:36Z</time>
      </trkpt>
      <trkpt lat="42.48394" lon="2.60824">
        <ele>559</ele>
        <time>2005-10-30T09:04:06Z</time>
      </trkpt>
      <trkpt lat="42.48417" lon="2.60732">
        <ele>563</ele>
        <time>2005-10-30T09:04:38Z</time>
      </trkpt>
      <trkpt lat="42.48443" lon="2.60694">
        <ele>563</ele>
        <time>2005-10-30T09:04:55Z</time>
      </trkpt>
      <trkpt lat="42.48518" lon="2.60651">
        <ele>579</ele>
        <time>2005-10-30T09:05:32Z</time>
      </trkpt>
      <trkpt lat="42.48546" lon="2.60597">
        <ele>580</ele>
        <time>2005-10-30T09:05:57Z</time>
      </trkpt>
      <trkpt lat="42.48492" lon="2.60648">
        <ele>587</ele>
        <time>2005-10-30T09:06:25Z</time>
      </trkpt>
      <trkpt lat="42.48441" lon="2.60657">
        <ele>594</ele>
        <time>2005-10-30T09:06:46Z</time>
      </trkpt>
      <trkpt lat="42.48417" lon="2.60698">
        <ele>604</ele>
        <time>2005-10-30T09:07:22Z</time>
      </trkpt>
      <trkpt lat="42.4828" lon="2.60717">
        <ele>619</ele>
        <time>2005-10-30T09:08:19Z</time>
      </trkpt>
      <trkpt lat="42.48194" lon="2.60889">
        <ele>629</ele>
        <time>2005-10-30T09:09:25Z</time>
      </trkpt>
      <trkpt lat="42.4813" lon="2.60966">
        <ele>638</ele>
        <time>2005-10-30T09:10:03Z</time>
      </trkpt>
      <trkpt lat="42.48093" lon="2.60979">
        <ele>644</ele>
        <time>2005-10-30T09:10:20Z</time>
      </trkpt>
      <trkpt lat="42.48008" lon="2.60936">
        <ele>647</ele>
        <time>2005-10-30T09:10:51Z</time>
      </trkpt>
      <trkpt lat="42.4798" lon="2.60837">
        <ele>649</ele>
        <time>2005-10-30T09:11:19Z</time>
      </trkpt>
      <trkpt lat="42.47954" lon="2.60814">
        <ele>650</ele>
        <time>2005-10-30T09:11:30Z</time>
      </trkpt>
      <trkpt lat="42.47872" lon="2.60822">
        <ele>657</ele>
        <time>2005-10-30T09:11:59Z</time>
      </trkpt>
      <trkpt lat="42.47817" lon="2.60854">
        <ele>664</ele>
        <time>2005-10-30T09:12:28Z</time>
      </trkpt>
      <trkpt lat="42.47802" lon="2.60827">
        <ele>664</ele>
        <time>2005-10-30T09:12:42Z</time>
      </trkpt>
      <trkpt lat="42.47806" lon="2.60788">
        <ele>665</ele>
        <time>2005-10-30T09:12:55Z</time>
      </trkpt>
      <trkpt lat="42.4778" lon="2.60762">
        <ele>667</ele>
        <time>2005-10-30T09:13:10Z</time>
      </trkpt>
      <trkpt lat="42.47769" lon="2.60728">
        <ele>670</ele>
        <time>2005-10-30T09:13:25Z</time>
      </trkpt>
      <trkpt lat="42.47774" lon="2.607">
        <ele>675</ele>
        <time>2005-10-30T09:13:37Z</time>
      </trkpt>
      <trkpt lat="42.47836" lon="2.60685">
        <ele>682</ele>
        <time>2005-10-30T09:14:13Z</time>
      </trkpt>
      <trkpt lat="42.4799" lon="2.60556">
        <ele>692</ele>
        <time>2005-10-30T09:15:52Z</time>
      </trkpt>
      <trkpt lat="42.48128" lon="2.60505">
        <ele>701</ele>
        <time>2005-10-30T09:17:02Z</time>
      </trkpt>
      <trkpt lat="42.48201" lon="2.6053">
        <ele>715</ele>
        <time>2005-10-30T09:17:41Z</time>
      </trkpt>
      <trkpt lat="42.48218" lon="2.60438">
        <ele>727</ele>
        <time>2005-10-30T09:18:18Z</time>
      </trkpt>
      <trkpt lat="42.48244" lon="2.60395">
        <ele>729</ele>
        <time>2005-10-30T09:18:39Z</time>
      </trkpt>
      <trkpt lat="42.48417" lon="2.60348">
        <ele>754</ele>
        <time>2005-10-30T09:20:13Z</time>
      </trkpt>
      <trkpt lat="42.48473" lon="2.60297">
        <ele>767</ele>
        <time>2005-10-30T09:20:44Z</time>
      </trkpt>
      <trkpt lat="42.48473" lon="2.60271">
        <ele>771</ele>
        <time>2005-10-30T09:20:58Z</time>
      </trkpt>
      <trkpt lat="42.48443" lon="2.60267">
        <ele>774</ele>
        <time>2005-10-30T09:21:12Z</time>
      </trkpt>
      <trkpt lat="42.48289" lon="2.60292">
        <ele>784</ele>
        <time>2005-10-30T09:22:15Z</time>
      </trkpt>
      <trkpt lat="42.48186" lon="2.60241">
        <ele>795</ele>
        <time>2005-10-30T09:23:02Z</time>
      </trkpt>
      <trkpt lat="42.48143" lon="2.602">
        <ele>800</ele>
        <time>2005-10-30T09:23:24Z</time>
      </trkpt>
      <trkpt lat="42.48104" lon="2.60196">
        <ele>805</ele>
        <time>2005-10-30T09:23:41Z</time>
      </trkpt>
      <trkpt lat="42.48106" lon="2.60183">
        <ele>806</ele>
        <time>2005-10-30T09:23:48Z</time>
      </trkpt>
      <trkpt lat="42.48138" lon="2.60176">
        <ele>811</ele>
        <time>2005-10-30T09:33:44Z</time>
      </trkpt>
      <trkpt lat="42.48196" lon="2.60204">
        <ele>811</ele>
        <time>2005-10-30T09:34:06Z</time>
      </trkpt>
      <trkpt lat="42.48321" lon="2.60181">
        <ele>816</ele>
        <time>2005-10-30T09:34:56Z</time>
      </trkpt>
      <trkpt lat="42.48501" lon="2.60009">
        <ele>839</ele>
        <time>2005-10-30T09:36:30Z</time>
      </trkpt>
      <trkpt lat="42.48525" lon="2.59955">
        <ele>844</ele>
        <time>2005-10-30T09:36:51Z</time>
      </trkpt>
      <trkpt lat="42.4858" lon="2.59891">
        <ele>849</ele>
        <time>2005-10-30T09:37:21Z</time>
      </trkpt>
      <trkpt lat="42.48591" lon="2.59846">
        <ele>849</ele>
        <time>2005-10-30T09:37:36Z</time>
      </trkpt>
      <trkpt lat="42.48724" lon="2.59872">
        <ele>865</ele>
        <time>2005-10-30T09:38:36Z</time>
      </trkpt>
      <trkpt lat="42.4878" lon="2.59855">
        <ele>870</ele>
        <time>2005-10-30T09:38:59Z</time>
      </trkpt>
      <trkpt lat="42.48801" lon="2.59764">
        <ele>873</ele>
        <time>2005-10-30T09:39:25Z</time>
      </trkpt>
      <trkpt lat="42.48859" lon="2.59685">
        <ele>879</ele>
        <time>2005-10-30T09:39:56Z</time>
      </trkpt>
      <trkpt lat="42.48919" lon="2.59702">
        <ele>880</ele>
        <time>2005-10-30T09:40:24Z</time>
      </trkpt>
      <trkpt lat="42.48971" lon="2.59694">
        <ele>883</ele>
        <time>2005-10-30T09:40:46Z</time>
      </trkpt>
      <trkpt lat="42.49098" lon="2.59599">
        <ele>889</ele>
        <time>2005-10-30T09:41:44Z</time>
      </trkpt>
      <trkpt lat="42.49201" lon="2.59447">
        <ele>889</ele>
        <time>2005-10-30T09:42:40Z</time>
      </trkpt>
      <trkpt lat="42.49316" lon="2.59344">
        <ele>889</ele>
        <time>2005-10-30T09:43:05Z</time>
      </trkpt>
      <trkpt lat="42.49368" lon="2.59322">
        <ele>889</ele>
        <time>2005-10-30T09:43:12Z</time>
      </trkpt>
      <trkpt lat="42.49392" lon="2.59325">
        <ele>889</ele>
        <time>2005-10-30T09:43:16Z</time>
      </trkpt>
      <trkpt lat="42.49467" lon="2.59453">
        <ele>887</ele>
        <time>2005-10-30T09:43:34Z</time>
      </trkpt>
      <trkpt lat="42.49471" lon="2.59646">
        <ele>886</ele>
        <time>2005-10-30T09:43:51Z</time>
      </trkpt>
      <trkpt lat="42.49424" lon="2.59762">
        <ele>885</ele>
        <time>2005-10-30T09:43:56Z</time>
      </trkpt>
      <trkpt lat="42.49441" lon="2.5979">
        <ele>885</ele>
        <time>2005-10-30T09:44:00Z</time>
      </trkpt>
      <trkpt lat="42.49514" lon="2.59837">
        <ele>885</ele>
        <time>2005-10-30T09:44:11Z</time>
      </trkpt>
      <trkpt lat="42.49505" lon="2.59865">
        <ele>883</ele>
        <time>2005-10-30T09:44:15Z</time>
      </trkpt>
      <trkpt lat="42.49475" lon="2.59897">
        <ele>880</ele>
        <time>2005-10-30T09:44:22Z</time>
      </trkpt>
      <trkpt lat="42.49443" lon="2.6005">
        <ele>873</ele>
        <time>2005-10-30T09:45:04Z</time>
      </trkpt>
      <trkpt lat="42.49323" lon="2.60224">
        <ele>874</ele>
        <time>2005-10-30T09:46:08Z</time>
      </trkpt>
      <trkpt lat="42.49323" lon="2.60376">
        <ele>871</ele>
        <time>2005-10-30T09:46:36Z</time>
      </trkpt>
      <trkpt lat="42.49368" lon="2.60629">
        <ele>868</ele>
        <time>2005-10-30T09:47:02Z</time>
      </trkpt>
      <trkpt lat="42.49364" lon="2.60681">
        <ele>867</ele>
        <time>2005-10-30T09:47:08Z</time>
      </trkpt>
      <trkpt lat="42.49372" lon="2.60736">
        <ele>866</ele>
        <time>2005-10-30T09:47:16Z</time>
      </trkpt>
      <trkpt lat="42.49422" lon="2.60822">
        <ele>870</ele>
        <time>2005-10-30T09:47:37Z</time>
      </trkpt>
      <trkpt lat="42.49522" lon="2.60794">
        <ele>870</ele>
        <time>2005-10-30T09:47:59Z</time>
      </trkpt>
      <trkpt lat="42.49578" lon="2.60807">
        <ele>870</ele>
        <time>2005-10-30T09:48:08Z</time>
      </trkpt>
      <trkpt lat="42.49598" lon="2.60831">
        <ele>870</ele>
        <time>2005-10-30T09:48:15Z</time>
      </trkpt>
      <trkpt lat="42.49598" lon="2.60857">
        <ele>870</ele>
        <time>2005-10-30T09:48:21Z</time>
      </trkpt>
      <trkpt lat="42.49507" lon="2.60925">
        <ele>870</ele>
        <time>2005-10-30T09:48:24Z</time>
      </trkpt>
      <trkpt lat="42.49452" lon="2.61024">
        <ele>871</ele>
        <time>2005-10-30T09:48:43Z</time>
      </trkpt>
      <trkpt lat="42.49377" lon="2.61099">
        <ele>871</ele>
        <time>2005-10-30T09:48:57Z</time>
      </trkpt>
      <trkpt lat="42.49346" lon="2.6117">
        <ele>871</ele>
        <time>2005-10-30T09:49:11Z</time>
      </trkpt>
      <trkpt lat="42.49179" lon="2.61131">
        <ele>871</ele>
        <time>2005-10-30T09:49:53Z</time>
      </trkpt>
      <trkpt lat="42.49093" lon="2.61191">
        <ele>871</ele>
        <time>2005-10-30T09:50:18Z</time>
      </trkpt>
      <trkpt lat="42.49063" lon="2.61234">
        <ele>871</ele>
        <time>2005-10-30T09:50:28Z</time>
      </trkpt>
      <trkpt lat="42.49048" lon="2.61303">
        <ele>872</ele>
        <time>2005-10-30T09:50:42Z</time>
      </trkpt>
      <trkpt lat="42.48952" lon="2.61468">
        <ele>873</ele>
        <time>2005-10-30T09:51:17Z</time>
      </trkpt>
      <trkpt lat="42.48947" lon="2.61498">
        <ele>873</ele>
        <time>2005-10-30T09:51:23Z</time>
      </trkpt>
      <trkpt lat="42.49044" lon="2.61706">
        <ele>882</ele>
        <time>2005-10-30T09:52:15Z</time>
      </trkpt>
      <trkpt lat="42.49138" lon="2.61839">
        <ele>888</ele>
        <time>2005-10-30T09:52:59Z</time>
      </trkpt>
      <trkpt lat="42.49404" lon="2.61994">
        <ele>904</ele>
        <time>2005-10-30T09:54:31Z</time>
      </trkpt>
      <trkpt lat="42.49469" lon="2.62084">
        <ele>905</ele>
        <time>2005-10-30T09:54:52Z</time>
      </trkpt>
      <trkpt lat="42.49477" lon="2.62118">
        <ele>905</ele>
        <time>2005-10-30T09:54:59Z</time>
      </trkpt>
      <trkpt lat="42.49344" lon="2.62303">
        <ele>906</ele>
        <time>2005-10-30T09:55:44Z</time>
      </trkpt>
      <trkpt lat="42.49241" lon="2.62273">
        <ele>906</ele>
        <time>2005-10-30T09:55:58Z</time>
      </trkpt>
      <trkpt lat="42.49198" lon="2.62281">
        <ele>906</ele>
        <time>2005-10-30T09:56:08Z</time>
      </trkpt>
      <trkpt lat="42.49171" lon="2.62314">
        <ele>907</ele>
        <time>2005-10-30T09:56:15Z</time>
      </trkpt>
      <trkpt lat="42.49145" lon="2.62382">
        <ele>908</ele>
        <time>2005-10-30T09:56:27Z</time>
      </trkpt>
      <trkpt lat="42.49156" lon="2.62554">
        <ele>910</ele>
        <time>2005-10-30T09:56:56Z</time>
      </trkpt>
      <trkpt lat="42.49216" lon="2.62788">
        <ele>901</ele>
        <time>2005-10-30T09:57:18Z</time>
      </trkpt>
      <trkpt lat="42.49192" lon="2.62912">
        <ele>899</ele>
        <time>2005-10-30T09:57:27Z</time>
      </trkpt>
      <trkpt lat="42.49198" lon="2.62955">
        <ele>898</ele>
        <time>2005-10-30T09:57:31Z</time>
      </trkpt>
      <trkpt lat="42.49261" lon="2.63022">
        <ele>894</ele>
        <time>2005-10-30T09:57:40Z</time>
      </trkpt>
      <trkpt lat="42.49353" lon="2.63028">
        <ele>890</ele>
        <time>2005-10-30T09:57:52Z</time>
      </trkpt>
      <trkpt lat="42.49447" lon="2.63174">
        <ele>883</ele>
        <time>2005-10-30T09:58:12Z</time>
      </trkpt>
      <trkpt lat="42.49454" lon="2.63232">
        <ele>883</ele>
        <time>2005-10-30T09:58:19Z</time>
      </trkpt>
      <trkpt lat="42.49434" lon="2.63339">
        <ele>881</ele>
        <time>2005-10-30T09:58:32Z</time>
      </trkpt>
      <trkpt lat="42.49452" lon="2.63455">
        <ele>882</ele>
        <time>2005-10-30T09:58:47Z</time>
      </trkpt>
      <trkpt lat="42.4943" lon="2.6356">
        <ele>878</ele>
        <time>2005-10-30T09:59:03Z</time>
      </trkpt>
      <trkpt lat="42.49447" lon="2.63582">
        <ele>882</ele>
        <time>2005-10-30T09:59:39Z</time>
      </trkpt>
      <trkpt lat="42.49441" lon="2.63567">
        <ele>879</ele>
        <time>2005-10-30T10:00:17Z</time>
      </trkpt>
      <trkpt lat="42.49482" lon="2.63562">
        <ele>899</ele>
        <time>2005-10-30T10:05:21Z</time>
      </trkpt>
      <trkpt lat="42.49473" lon="2.63556">
        <ele>881</ele>
        <time>2005-10-30T10:06:34Z</time>
      </trkpt>
      <trkpt lat="42.49537" lon="2.63299">
        <ele>903</ele>
        <time>2005-10-30T10:09:54Z</time>
      </trkpt>
      <trkpt lat="42.49533" lon="2.63243">
        <ele>907</ele>
        <time>2005-10-30T10:10:12Z</time>
      </trkpt>
      <trkpt lat="42.49598" lon="2.63172">
        <ele>912</ele>
        <time>2005-10-30T10:10:41Z</time>
      </trkpt>
      <trkpt lat="42.49634" lon="2.63039">
        <ele>916</ele>
        <time>2005-10-30T10:11:19Z</time>
      </trkpt>
      <trkpt lat="42.49707" lon="2.62923">
        <ele>924</ele>
        <time>2005-10-30T10:12:05Z</time>
      </trkpt>
      <trkpt lat="42.49733" lon="2.62839">
        <ele>931</ele>
        <time>2005-10-30T10:12:37Z</time>
      </trkpt>
      <trkpt lat="42.49767" lon="2.62794">
        <ele>938</ele>
        <time>2005-10-30T10:13:00Z</time>
      </trkpt>
      <trkpt lat="42.49806" lon="2.62704">
        <ele>947</ele>
        <time>2005-10-30T10:13:36Z</time>
      </trkpt>
      <trkpt lat="42.49851" lon="2.62646">
        <ele>951</ele>
        <time>2005-10-30T10:14:05Z</time>
      </trkpt>
      <trkpt lat="42.49943" lon="2.62563">
        <ele>963</ele>
        <time>2005-10-30T10:14:50Z</time>
      </trkpt>
      <trkpt lat="42.49686" lon="2.62657">
        <ele>967</ele>
        <time>2005-10-30T10:16:45Z</time>
      </trkpt>
      <trkpt lat="42.4958" lon="2.6282">
        <ele>973</ele>
        <time>2005-10-30T10:17:23Z</time>
      </trkpt>
      <trkpt lat="42.49542" lon="2.62837">
        <ele>973</ele>
        <time>2005-10-30T10:17:29Z</time>
      </trkpt>
      <trkpt lat="42.49492" lon="2.62822">
        <ele>973</ele>
        <time>2005-10-30T10:17:36Z</time>
      </trkpt>
      <trkpt lat="42.49437" lon="2.62736">
        <ele>977</ele>
        <time>2005-10-30T10:17:52Z</time>
      </trkpt>
      <trkpt lat="42.49392" lon="2.62554">
        <ele>991</ele>
        <time>2005-10-30T10:18:44Z</time>
      </trkpt>
      <trkpt lat="42.49402" lon="2.62492">
        <ele>995</ele>
        <time>2005-10-30T10:19:02Z</time>
      </trkpt>
      <trkpt lat="42.49456" lon="2.62423">
        <ele>1004</ele>
        <time>2005-10-30T10:19:33Z</time>
      </trkpt>
      <trkpt lat="42.49544" lon="2.62365">
        <ele>1013</ele>
        <time>2005-10-30T10:20:10Z</time>
      </trkpt>
      <trkpt lat="42.49615" lon="2.62286">
        <ele>1020</ele>
        <time>2005-10-30T10:20:42Z</time>
      </trkpt>
      <trkpt lat="42.49681" lon="2.62251">
        <ele>1026</ele>
        <time>2005-10-30T10:21:10Z</time>
      </trkpt>
      <trkpt lat="42.49735" lon="2.62172">
        <ele>1034</ele>
        <time>2005-10-30T10:21:41Z</time>
      </trkpt>
      <trkpt lat="42.49756" lon="2.62105">
        <ele>1035</ele>
        <time>2005-10-30T10:22:03Z</time>
      </trkpt>
      <trkpt lat="42.49705" lon="2.61919">
        <ele>1046</ele>
        <time>2005-10-30T10:22:58Z</time>
      </trkpt>
      <trkpt lat="42.49613" lon="2.61788">
        <ele>1059</ele>
        <time>2005-10-30T10:23:43Z</time>
      </trkpt>
      <trkpt lat="42.49559" lon="2.61678">
        <ele>1067</ele>
        <time>2005-10-30T10:24:12Z</time>
      </trkpt>
      <trkpt lat="42.49681" lon="2.61569">
        <ele>1075</ele>
        <time>2005-10-30T10:25:03Z</time>
      </trkpt>
      <trkpt lat="42.49692" lon="2.61573">
        <ele>1076</ele>
        <time>2005-10-30T10:25:08Z</time>
      </trkpt>
      <trkpt lat="42.49688" lon="2.61588">
        <ele>1077</ele>
        <time>2005-10-30T10:25:12Z</time>
      </trkpt>
      <trkpt lat="42.49634" lon="2.61687">
        <ele>1081</ele>
        <time>2005-10-30T10:25:43Z</time>
      </trkpt>
      <trkpt lat="42.49701" lon="2.61603">
        <ele>1091</ele>
        <time>2005-10-30T10:26:15Z</time>
      </trkpt>
      <trkpt lat="42.49739" lon="2.61539">
        <ele>1096</ele>
        <time>2005-10-30T10:26:37Z</time>
      </trkpt>
      <trkpt lat="42.49765" lon="2.61419">
        <ele>1110</ele>
        <time>2005-10-30T10:27:10Z</time>
      </trkpt>
      <trkpt lat="42.49761" lon="2.61608">
        <ele>1118</ele>
        <time>2005-10-30T10:27:52Z</time>
      </trkpt>
      <trkpt lat="42.49731" lon="2.61724">
        <ele>1122</ele>
        <time>2005-10-30T10:28:17Z</time>
      </trkpt>
      <trkpt lat="42.49752" lon="2.61741">
        <ele>1125</ele>
        <time>2005-10-30T10:28:31Z</time>
      </trkpt>
      <trkpt lat="42.49748" lon="2.61758">
        <ele>1127</ele>
        <time>2005-10-30T10:28:45Z</time>
      </trkpt>
      <trkpt lat="42.49746" lon="2.61751">
        <ele>1127</ele>
        <time>2005-10-30T10:33:53Z</time>
      </trkpt>
      <trkpt lat="42.4975" lon="2.61741">
        <ele>1127</ele>
        <time>2005-10-30T10:34:02Z</time>
      </trkpt>
      <trkpt lat="42.49743" lon="2.61751">
        <ele>1131</ele>
        <time>2005-10-30T10:36:12Z</time>
      </trkpt>
      <trkpt lat="42.49735" lon="2.61721">
        <ele>1132</ele>
        <time>2005-10-30T10:49:57Z</time>
      </trkpt>
      <trkpt lat="42.49778" lon="2.61606">
        <ele>1131</ele>
        <time>2005-10-30T10:50:30Z</time>
      </trkpt>
      <trkpt lat="42.49808" lon="2.61352">
        <ele>1134</ele>
        <time>2005-10-30T10:51:29Z</time>
      </trkpt>
      <trkpt lat="42.49844" lon="2.61292">
        <ele>1134</ele>
        <time>2005-10-30T10:51:48Z</time>
      </trkpt>
      <trkpt lat="42.49977" lon="2.61206">
        <ele>1134</ele>
        <time>2005-10-30T10:52:30Z</time>
      </trkpt>
      <trkpt lat="42.50003" lon="2.6117">
        <ele>1135</ele>
        <time>2005-10-30T10:52:39Z</time>
      </trkpt>
      <trkpt lat="42.50065" lon="2.60947">
        <ele>1136</ele>
        <time>2005-10-30T10:53:21Z</time>
      </trkpt>
      <trkpt lat="42.50188" lon="2.60732">
        <ele>1138</ele>
        <time>2005-10-30T10:54:07Z</time>
      </trkpt>
      <trkpt lat="42.50288" lon="2.60601">
        <ele>1139</ele>
        <time>2005-10-30T10:54:38Z</time>
      </trkpt>
      <trkpt lat="42.50385" lon="2.60374">
        <ele>1140</ele>
        <time>2005-10-30T10:56:00Z</time>
      </trkpt>
      <trkpt lat="42.50394" lon="2.60264">
        <ele>1140</ele>
        <time>2005-10-30T10:56:29Z</time>
      </trkpt>
      <trkpt lat="42.50357" lon="2.60056">
        <ele>1139</ele>
        <time>2005-10-30T10:57:15Z</time>
      </trkpt>
      <trkpt lat="42.50353" lon="2.59863">
        <ele>1141</ele>
        <time>2005-10-30T10:57:58Z</time>
      </trkpt>
      <trkpt lat="42.5034" lon="2.59827">
        <ele>1140</ele>
        <time>2005-10-30T10:58:06Z</time>
      </trkpt>
      <trkpt lat="42.50282" lon="2.5976">
        <ele>1139</ele>
        <time>2005-10-30T10:58:26Z</time>
      </trkpt>
      <trkpt lat="42.50235" lon="2.59668">
        <ele>1138</ele>
        <time>2005-10-30T10:58:48Z</time>
      </trkpt>
      <trkpt lat="42.50321" lon="2.59571">
        <ele>1138</ele>
        <time>2005-10-30T10:59:21Z</time>
      </trkpt>
      <trkpt lat="42.504" lon="2.5952">
        <ele>1138</ele>
        <time>2005-10-30T10:59:25Z</time>
      </trkpt>
      <trkpt lat="42.50415" lon="2.59099">
        <ele>1142</ele>
        <time>2005-10-30T11:00:43Z</time>
      </trkpt>
      <trkpt lat="42.50447" lon="2.59146">
        <ele>1142</ele>
        <time>2005-10-30T11:01:05Z</time>
      </trkpt>
      <trkpt lat="42.50535" lon="2.59196">
        <ele>1142</ele>
        <time>2005-10-30T11:01:17Z</time>
      </trkpt>
      <trkpt lat="42.5064" lon="2.59217">
        <ele>1144</ele>
        <time>2005-10-30T11:01:44Z</time>
      </trkpt>
      <trkpt lat="42.50733" lon="2.592">
        <ele>1143</ele>
        <time>2005-10-30T11:02:13Z</time>
      </trkpt>
      <trkpt lat="42.50758" lon="2.59172">
        <ele>1143</ele>
        <time>2005-10-30T11:02:22Z</time>
      </trkpt>
      <trkpt lat="42.50769" lon="2.59091">
        <ele>1144</ele>
        <time>2005-10-30T11:02:34Z</time>
      </trkpt>
      <trkpt lat="42.50776" lon="2.59116">
        <ele>1152</ele>
        <time>2005-10-30T11:03:48Z</time>
      </trkpt>
      <trkpt lat="42.50829" lon="2.59183">
        <ele>1149</ele>
        <time>2005-10-30T11:04:14Z</time>
      </trkpt>
      <trkpt lat="42.50889" lon="2.59232">
        <ele>1148</ele>
        <time>2005-10-30T11:04:32Z</time>
      </trkpt>
      <trkpt lat="42.51052" lon="2.59288">
        <ele>1150</ele>
        <time>2005-10-30T11:05:18Z</time>
      </trkpt>
      <trkpt lat="42.5113" lon="2.59393">
        <ele>1151</ele>
        <time>2005-10-30T11:05:58Z</time>
      </trkpt>
      <trkpt lat="42.51166" lon="2.59406">
        <ele>1151</ele>
        <time>2005-10-30T11:06:09Z</time>
      </trkpt>
      <trkpt lat="42.5123" lon="2.59393">
        <ele>1150</ele>
        <time>2005-10-30T11:06:19Z</time>
      </trkpt>
      <trkpt lat="42.51301" lon="2.59344">
        <ele>1152</ele>
        <time>2005-10-30T11:06:40Z</time>
      </trkpt>
      <trkpt lat="42.51512" lon="2.58996">
        <ele>1156</ele>
        <time>2005-10-30T11:08:16Z</time>
      </trkpt>
      <trkpt lat="42.51529" lon="2.58906">
        <ele>1161</ele>
        <time>2005-10-30T11:08:33Z</time>
      </trkpt>
      <trkpt lat="42.51522" lon="2.58872">
        <ele>1162</ele>
        <time>2005-10-30T11:08:40Z</time>
      </trkpt>
      <trkpt lat="42.51411" lon="2.58677">
        <ele>1163</ele>
        <time>2005-10-30T11:09:21Z</time>
      </trkpt>
      <trkpt lat="42.5137" lon="2.58492">
        <ele>1163</ele>
        <time>2005-10-30T11:09:55Z</time>
      </trkpt>
      <trkpt lat="42.51213" lon="2.58408">
        <ele>1167</ele>
        <time>2005-10-30T11:10:43Z</time>
      </trkpt>
      <trkpt lat="42.512" lon="2.5825">
        <ele>1168</ele>
        <time>2005-10-30T11:11:14Z</time>
      </trkpt>
      <trkpt lat="42.51168" lon="2.58168">
        <ele>1168</ele>
        <time>2005-10-30T11:11:31Z</time>
      </trkpt>
      <trkpt lat="42.51224" lon="2.58138">
        <ele>1169</ele>
        <time>2005-10-30T11:12:37Z</time>
      </trkpt>
      <trkpt lat="42.51226" lon="2.58119">
        <ele>1172</ele>
        <time>2005-10-30T11:13:27Z</time>
      </trkpt>
      <trkpt lat="42.51228" lon="2.58132">
        <ele>1172</ele>
        <time>2005-10-30T11:14:25Z</time>
      </trkpt>
      <trkpt lat="42.51207" lon="2.5791">
        <ele>1175</ele>
        <time>2005-10-30T11:17:59Z</time>
      </trkpt>
      <trkpt lat="42.51261" lon="2.57887">
        <ele>1175</ele>
        <time>2005-10-30T11:18:19Z</time>
      </trkpt>
      <trkpt lat="42.51336" lon="2.57947">
        <ele>1175</ele>
        <time>2005-10-30T11:19:02Z</time>
      </trkpt>
      <trkpt lat="42.51436" lon="2.57913">
        <ele>1175</ele>
        <time>2005-10-30T11:19:10Z</time>
      </trkpt>
      <trkpt lat="42.51509" lon="2.57756">
        <ele>1175</ele>
        <time>2005-10-30T11:20:06Z</time>
      </trkpt>
      <trkpt lat="42.51557" lon="2.57795">
        <ele>1177</ele>
        <time>2005-10-30T11:20:23Z</time>
      </trkpt>
      <trkpt lat="42.51651" lon="2.579">
        <ele>1177</ele>
        <time>2005-10-30T11:20:54Z</time>
      </trkpt>
      <trkpt lat="42.51713" lon="2.57932">
        <ele>1176</ele>
        <time>2005-10-30T11:21:11Z</time>
      </trkpt>
      <trkpt lat="42.51947" lon="2.579">
        <ele>1176</ele>
        <time>2005-10-30T11:22:13Z</time>
      </trkpt>
      <trkpt lat="42.51917" lon="2.57445">
        <ele>1200</ele>
        <time>2005-10-30T11:28:51Z</time>
      </trkpt>
      <trkpt lat="42.51958" lon="2.57413">
        <ele>1200</ele>
        <time>2005-10-30T11:29:06Z</time>
      </trkpt>
      <trkpt lat="42.51986" lon="2.57368">
        <ele>1200</ele>
        <time>2005-10-30T11:29:21Z</time>
      </trkpt>
      <trkpt lat="42.51951" lon="2.57273">
        <ele>1200</ele>
        <time>2005-10-30T11:29:48Z</time>
      </trkpt>
      <trkpt lat="42.51947" lon="2.57185">
        <ele>1200</ele>
        <time>2005-10-30T11:30:15Z</time>
      </trkpt>
      <trkpt lat="42.52044" lon="2.57142">
        <ele>1200</ele>
        <time>2005-10-30T11:30:24Z</time>
      </trkpt>
      <trkpt lat="42.52044" lon="2.57099">
        <ele>1199</ele>
        <time>2005-10-30T11:30:37Z</time>
      </trkpt>
      <trkpt lat="42.52007" lon="2.57024">
        <ele>1197</ele>
        <time>2005-10-30T11:30:58Z</time>
      </trkpt>
      <trkpt lat="42.51941" lon="2.56941">
        <ele>1196</ele>
        <time>2005-10-30T11:31:21Z</time>
      </trkpt>
      <trkpt lat="42.51984" lon="2.56814">
        <ele>1196</ele>
        <time>2005-10-30T11:32:05Z</time>
      </trkpt>
      <trkpt lat="42.51894" lon="2.56973">
        <ele>1227</ele>
        <time>2005-10-30T11:42:26Z</time>
      </trkpt>
      <trkpt lat="42.51956" lon="2.57091">
        <ele>1233</ele>
        <time>2005-10-30T11:43:22Z</time>
      </trkpt>
      <trkpt lat="42.51962" lon="2.5714">
        <ele>1234</ele>
        <time>2005-10-30T11:43:35Z</time>
      </trkpt>
      <trkpt lat="42.51829" lon="2.57694">
        <ele>1256</ele>
        <time>2005-10-30T11:46:14Z</time>
      </trkpt>
      <trkpt lat="42.51793" lon="2.57713">
        <ele>1260</ele>
        <time>2005-10-30T11:46:27Z</time>
      </trkpt>
      <trkpt lat="42.5167" lon="2.57685">
        <ele>1273</ele>
        <time>2005-10-30T11:47:10Z</time>
      </trkpt>
      <trkpt lat="42.51475" lon="2.57492">
        <ele>1288</ele>
        <time>2005-10-30T11:48:40Z</time>
      </trkpt>
      <trkpt lat="42.51394" lon="2.57524">
        <ele>1290</ele>
        <time>2005-10-30T11:49:07Z</time>
      </trkpt>
      <trkpt lat="42.51301" lon="2.57668">
        <ele>1296</ele>
        <time>2005-10-30T11:49:48Z</time>
      </trkpt>
      <trkpt lat="42.51265" lon="2.57681">
        <ele>1297</ele>
        <time>2005-10-30T11:50:01Z</time>
      </trkpt>
      <trkpt lat="42.51136" lon="2.57649">
        <ele>1304</ele>
        <time>2005-10-30T11:50:48Z</time>
      </trkpt>
      <trkpt lat="42.51087" lon="2.57705">
        <ele>1309</ele>
        <time>2005-10-30T11:51:08Z</time>
      </trkpt>
      <trkpt lat="42.51014" lon="2.5773">
        <ele>1311</ele>
        <time>2005-10-30T11:51:30Z</time>
      </trkpt>
      <trkpt lat="42.5093" lon="2.5785">
        <ele>1316</ele>
        <time>2005-10-30T11:52:03Z</time>
      </trkpt>
      <trkpt lat="42.50928" lon="2.58018">
        <ele>1324</ele>
        <time>2005-10-30T11:52:41Z</time>
      </trkpt>
      <trkpt lat="42.50881" lon="2.58204">
        <ele>1325</ele>
        <time>2005-10-30T11:53:43Z</time>
      </trkpt>
      <trkpt lat="42.50887" lon="2.58333">
        <ele>1330</ele>
        <time>2005-10-30T11:54:26Z</time>
      </trkpt>
      <trkpt lat="42.5093" lon="2.58503">
        <ele>1352</ele>
        <time>2005-10-30T11:55:22Z</time>
      </trkpt>
      <trkpt lat="42.50945" lon="2.58687">
        <ele>1368</ele>
        <time>2005-10-30T11:56:10Z</time>
      </trkpt>
      <trkpt lat="42.5093" lon="2.58685">
        <ele>1369</ele>
        <time>2005-10-30T11:56:22Z</time>
      </trkpt>
      <trkpt lat="42.5093" lon="2.58578">
        <ele>1372</ele>
        <time>2005-10-30T11:56:56Z</time>
      </trkpt>
      <trkpt lat="42.50909" lon="2.58434">
        <ele>1378</ele>
        <time>2005-10-30T11:57:37Z</time>
      </trkpt>
      <trkpt lat="42.50849" lon="2.58273">
        <ele>1385</ele>
        <time>2005-10-30T11:58:44Z</time>
      </trkpt>
      <trkpt lat="42.50818" lon="2.58136">
        <ele>1395</ele>
        <time>2005-10-30T11:59:27Z</time>
      </trkpt>
      <trkpt lat="42.50818" lon="2.58007">
        <ele>1401</ele>
        <time>2005-10-30T12:00:04Z</time>
      </trkpt>
      <trkpt lat="42.50836" lon="2.57917">
        <ele>1406</ele>
        <time>2005-10-30T12:00:29Z</time>
      </trkpt>
      <trkpt lat="42.50818" lon="2.57636">
        <ele>1421</ele>
        <time>2005-10-30T12:01:40Z</time>
      </trkpt>
      <trkpt lat="42.50887" lon="2.57571">
        <ele>1431</ele>
        <time>2005-10-30T12:10:10Z</time>
      </trkpt>
      <trkpt lat="42.50883" lon="2.57556">
        <ele>1429</ele>
        <time>2005-10-30T12:24:16Z</time>
      </trkpt>
      <trkpt lat="42.50885" lon="2.57576">
        <ele>1426</ele>
        <time>2005-10-30T12:25:38Z</time>
      </trkpt>
      <trkpt lat="42.50891" lon="2.57509">
        <ele>1428</ele>
        <time>2005-10-30T12:29:14Z</time>
      </trkpt>
      <trkpt lat="42.50885" lon="2.57376">
        <ele>1426</ele>
        <time>2005-10-30T12:29:40Z</time>
      </trkpt>
      <trkpt lat="42.50838" lon="2.57232">
        <ele>1421</ele>
        <time>2005-10-30T12:30:02Z</time>
      </trkpt>
      <trkpt lat="42.50844" lon="2.57149">
        <ele>1421</ele>
        <time>2005-10-30T12:30:16Z</time>
      </trkpt>
      <trkpt lat="42.50885" lon="2.56999">
        <ele>1421</ele>
        <time>2005-10-30T12:30:38Z</time>
      </trkpt>
      <trkpt lat="42.50885" lon="2.56906">
        <ele>1420</ele>
        <time>2005-10-30T12:30:50Z</time>
      </trkpt>
      <trkpt lat="42.5087" lon="2.56842">
        <ele>1421</ele>
        <time>2005-10-30T12:30:59Z</time>
      </trkpt>
      <trkpt lat="42.50808" lon="2.56724">
        <ele>1420</ele>
        <time>2005-10-30T12:31:19Z</time>
      </trkpt>
      <trkpt lat="42.50737" lon="2.5664">
        <ele>1418</ele>
        <time>2005-10-30T12:31:35Z</time>
      </trkpt>
      <trkpt lat="42.50649" lon="2.56578">
        <ele>1417</ele>
        <time>2005-10-30T12:31:52Z</time>
      </trkpt>
      <trkpt lat="42.50602" lon="2.56524">
        <ele>1414</ele>
        <time>2005-10-30T12:32:02Z</time>
      </trkpt>
      <trkpt lat="42.5058" lon="2.56469">
        <ele>1413</ele>
        <time>2005-10-30T12:32:10Z</time>
      </trkpt>
      <trkpt lat="42.50587" lon="2.56348">
        <ele>1413</ele>
        <time>2005-10-30T12:32:29Z</time>
      </trkpt>
      <trkpt lat="42.50638" lon="2.56121">
        <ele>1411</ele>
        <time>2005-10-30T12:33:03Z</time>
      </trkpt>
      <trkpt lat="42.50634" lon="2.56099">
        <ele>1411</ele>
        <time>2005-10-30T12:33:07Z</time>
      </trkpt>
      <trkpt lat="42.5057" lon="2.56048">
        <ele>1411</ele>
        <time>2005-10-30T12:33:24Z</time>
      </trkpt>
      <trkpt lat="42.50494" lon="2.56014">
        <ele>1411</ele>
        <time>2005-10-30T12:33:40Z</time>
      </trkpt>
      <trkpt lat="42.50467" lon="2.55966">
        <ele>1411</ele>
        <time>2005-10-30T12:33:49Z</time>
      </trkpt>
      <trkpt lat="42.5043" lon="2.55814">
        <ele>1412</ele>
        <time>2005-10-30T12:34:13Z</time>
      </trkpt>
      <trkpt lat="42.50426" lon="2.55655">
        <ele>1413</ele>
        <time>2005-10-30T12:34:41Z</time>
      </trkpt>
      <trkpt lat="42.50407" lon="2.55589">
        <ele>1411</ele>
        <time>2005-10-30T12:34:52Z</time>
      </trkpt>
      <trkpt lat="42.50183" lon="2.55615">
        <ele>1398</ele>
        <time>2005-10-30T12:35:31Z</time>
      </trkpt>
      <trkpt lat="42.50162" lon="2.55638">
        <ele>1396</ele>
        <time>2005-10-30T12:36:14Z</time>
      </trkpt>
      <trkpt lat="42.50216" lon="2.55672">
        <ele>1387</ele>
        <time>2005-10-30T12:37:28Z</time>
      </trkpt>
      <trkpt lat="42.5025" lon="2.55739">
        <ele>1377</ele>
        <time>2005-10-30T12:37:40Z</time>
      </trkpt>
      <trkpt lat="42.50252" lon="2.55913">
        <ele>1358</ele>
        <time>2005-10-30T12:38:12Z</time>
      </trkpt>
      <trkpt lat="42.50276" lon="2.5596">
        <ele>1352</ele>
        <time>2005-10-30T12:38:28Z</time>
      </trkpt>
      <trkpt lat="42.50261" lon="2.55994">
        <ele>1348</ele>
        <time>2005-10-30T12:38:35Z</time>
      </trkpt>
      <trkpt lat="42.50267" lon="2.56033">
        <ele>1342</ele>
        <time>2005-10-30T12:39:10Z</time>
      </trkpt>
      <trkpt lat="42.50237" lon="2.56181">
        <ele>1332</ele>
        <time>2005-10-30T12:40:02Z</time>
      </trkpt>
      <trkpt lat="42.49971" lon="2.56164">
        <ele>1290</ele>
        <time>2005-10-30T12:42:49Z</time>
      </trkpt>
      <trkpt lat="42.49866" lon="2.56179">
        <ele>1264</ele>
        <time>2005-10-30T12:43:17Z</time>
      </trkpt>
      <trkpt lat="42.4984" lon="2.56162">
        <ele>1254</ele>
        <time>2005-10-30T12:43:34Z</time>
      </trkpt>
      <trkpt lat="42.49823" lon="2.56217">
        <ele>1238</ele>
        <time>2005-10-30T12:44:01Z</time>
      </trkpt>
      <trkpt lat="42.49801" lon="2.5623">
        <ele>1231</ele>
        <time>2005-10-30T12:44:12Z</time>
      </trkpt>
      <trkpt lat="42.49776" lon="2.56215">
        <ele>1220</ele>
        <time>2005-10-30T12:44:32Z</time>
      </trkpt>
      <trkpt lat="42.49683" lon="2.5625">
        <ele>1171</ele>
        <time>2005-10-30T12:46:26Z</time>
      </trkpt>
      <trkpt lat="42.49632" lon="2.56293">
        <ele>1159</ele>
        <time>2005-10-30T12:46:57Z</time>
      </trkpt>
      <trkpt lat="42.4961" lon="2.56336">
        <ele>1153</ele>
        <time>2005-10-30T12:47:11Z</time>
      </trkpt>
      <trkpt lat="42.49548" lon="2.56342">
        <ele>1143</ele>
        <time>2005-10-30T12:48:12Z</time>
      </trkpt>
      <trkpt lat="42.49514" lon="2.564">
        <ele>1122</ele>
        <time>2005-10-30T12:49:02Z</time>
      </trkpt>
      <trkpt lat="42.49492" lon="2.56385">
        <ele>1111</ele>
        <time>2005-10-30T12:49:47Z</time>
      </trkpt>
      <trkpt lat="42.49449" lon="2.56484">
        <ele>1082</ele>
        <time>2005-10-30T12:51:15Z</time>
      </trkpt>
      <trkpt lat="42.49331" lon="2.5658">
        <ele>1067</ele>
        <time>2005-10-30T12:58:32Z</time>
      </trkpt>
      <trkpt lat="42.49327" lon="2.56666">
        <ele>1061</ele>
        <time>2005-10-30T12:59:01Z</time>
      </trkpt>
      <trkpt lat="42.4931" lon="2.56679">
        <ele>1059</ele>
        <time>2005-10-30T12:59:08Z</time>
      </trkpt>
      <trkpt lat="42.49168" lon="2.56685">
        <ele>1039</ele>
        <time>2005-10-30T12:59:54Z</time>
      </trkpt>
      <trkpt lat="42.49125" lon="2.56726">
        <ele>1038</ele>
        <time>2005-10-30T13:00:01Z</time>
      </trkpt>
      <trkpt lat="42.49055" lon="2.56728">
        <ele>1035</ele>
        <time>2005-10-30T13:00:11Z</time>
      </trkpt>
      <trkpt lat="42.49029" lon="2.56765">
        <ele>1032</ele>
        <time>2005-10-30T13:00:16Z</time>
      </trkpt>
      <trkpt lat="42.48962" lon="2.56932">
        <ele>1024</ele>
        <time>2005-10-30T13:00:32Z</time>
      </trkpt>
      <trkpt lat="42.48932" lon="2.56977">
        <ele>1020</ele>
        <time>2005-10-30T13:00:36Z</time>
      </trkpt>
      <trkpt lat="42.48872" lon="2.57016">
        <ele>1014</ele>
        <time>2005-10-30T13:00:42Z</time>
      </trkpt>
      <trkpt lat="42.48857" lon="2.57052">
        <ele>1012</ele>
        <time>2005-10-30T13:00:46Z</time>
      </trkpt>
      <trkpt lat="42.4898" lon="2.57018">
        <ele>1002</ele>
        <time>2005-10-30T13:01:05Z</time>
      </trkpt>
      <trkpt lat="42.49108" lon="2.56921">
        <ele>1002</ele>
        <time>2005-10-30T13:01:25Z</time>
      </trkpt>
      <trkpt lat="42.49263" lon="2.56969">
        <ele>997</ele>
        <time>2005-10-30T13:01:50Z</time>
      </trkpt>
      <trkpt lat="42.49301" lon="2.57011">
        <ele>993</ele>
        <time>2005-10-30T13:01:57Z</time>
      </trkpt>
      <trkpt lat="42.49299" lon="2.57035">
        <ele>986</ele>
        <time>2005-10-30T13:02:02Z</time>
      </trkpt>
      <trkpt lat="42.49252" lon="2.57009">
        <ele>985</ele>
        <time>2005-10-30T13:02:12Z</time>
      </trkpt>
      <trkpt lat="42.49168" lon="2.57091">
        <ele>979</ele>
        <time>2005-10-30T13:02:27Z</time>
      </trkpt>
      <trkpt lat="42.49093" lon="2.57211">
        <ele>973</ele>
        <time>2005-10-30T13:02:43Z</time>
      </trkpt>
      <trkpt lat="42.49035" lon="2.57569">
        <ele>895</ele>
        <time>2005-10-30T13:03:37Z</time>
      </trkpt>
      <trkpt lat="42.49022" lon="2.57552">
        <ele>897</ele>
        <time>2005-10-30T13:04:01Z</time>
      </trkpt>
      <trkpt lat="42.49014" lon="2.57567">
        <ele>895</ele>
        <time>2005-10-30T13:04:08Z</time>
      </trkpt>
      <trkpt lat="42.48937" lon="2.57743">
        <ele>891</ele>
        <time>2005-10-30T13:04:39Z</time>
      </trkpt>
      <trkpt lat="42.48971" lon="2.57756">
        <ele>877</ele>
        <time>2005-10-30T13:05:28Z</time>
      </trkpt>
      <trkpt lat="42.48898" lon="2.57838">
        <ele>856</ele>
        <time>2005-10-30T13:06:32Z</time>
      </trkpt>
      <trkpt lat="42.48829" lon="2.57953">
        <ele>835</ele>
        <time>2005-10-30T13:07:32Z</time>
      </trkpt>
      <trkpt lat="42.48847" lon="2.58031">
        <ele>798</ele>
        <time>2005-10-30T13:11:25Z</time>
      </trkpt>
      <trkpt lat="42.4884" lon="2.5805">
        <ele>797</ele>
        <time>2005-10-30T13:11:35Z</time>
      </trkpt>
      <trkpt lat="42.48808" lon="2.58069">
        <ele>790</ele>
        <time>2005-10-30T13:11:45Z</time>
      </trkpt>
      <trkpt lat="42.48793" lon="2.58157">
        <ele>756</ele>
        <time>2005-10-30T13:13:54Z</time>
      </trkpt>
      <trkpt lat="42.48698" lon="2.58166">
        <ele>760</ele>
        <time>2005-10-30T13:14:34Z</time>
      </trkpt>
      <trkpt lat="42.48673" lon="2.58194">
        <ele>762</ele>
        <time>2005-10-30T13:14:47Z</time>
      </trkpt>
      <trkpt lat="42.48668" lon="2.5823">
        <ele>763</ele>
        <time>2005-10-30T13:14:59Z</time>
      </trkpt>
      <trkpt lat="42.48626" lon="2.5831">
        <ele>767</ele>
        <time>2005-10-30T13:15:34Z</time>
      </trkpt>
      <trkpt lat="42.48632" lon="2.5832">
        <ele>770</ele>
        <time>2005-10-30T13:15:44Z</time>
      </trkpt>
      <trkpt lat="42.48613" lon="2.58338">
        <ele>773</ele>
        <time>2005-10-30T13:15:57Z</time>
      </trkpt>
      <trkpt lat="42.4857" lon="2.58475">
        <ele>786</ele>
        <time>2005-10-30T13:16:39Z</time>
      </trkpt>
      <trkpt lat="42.48535" lon="2.58696">
        <ele>800</ele>
        <time>2005-10-30T13:17:32Z</time>
      </trkpt>
      <trkpt lat="42.48488" lon="2.58784">
        <ele>803</ele>
        <time>2005-10-30T13:25:35Z</time>
      </trkpt>
      <trkpt lat="42.48473" lon="2.5884">
        <ele>803</ele>
        <time>2005-10-30T13:25:43Z</time>
      </trkpt>
      <trkpt lat="42.48458" lon="2.58917">
        <ele>801</ele>
        <time>2005-10-30T13:25:53Z</time>
      </trkpt>
      <trkpt lat="42.48465" lon="2.58986">
        <ele>802</ele>
        <time>2005-10-30T13:26:03Z</time>
      </trkpt>
      <trkpt lat="42.48319" lon="2.592">
        <ele>794</ele>
        <time>2005-10-30T13:26:35Z</time>
      </trkpt>
      <trkpt lat="42.48274" lon="2.59237">
        <ele>790</ele>
        <time>2005-10-30T13:26:42Z</time>
      </trkpt>
      <trkpt lat="42.48239" lon="2.59357">
        <ele>784</ele>
        <time>2005-10-30T13:26:54Z</time>
      </trkpt>
      <trkpt lat="42.48136" lon="2.59438">
        <ele>782</ele>
        <time>2005-10-30T13:27:08Z</time>
      </trkpt>
      <trkpt lat="42.48096" lon="2.59604">
        <ele>758</ele>
        <time>2005-10-30T13:28:16Z</time>
      </trkpt>
      <trkpt lat="42.48057" lon="2.59867">
        <ele>752</ele>
        <time>2005-10-30T13:28:52Z</time>
      </trkpt>
      <trkpt lat="42.47975" lon="2.59917">
        <ele>750</ele>
        <time>2005-10-30T13:29:06Z</time>
      </trkpt>
      <trkpt lat="42.47857" lon="2.60026">
        <ele>745</ele>
        <time>2005-10-30T13:29:40Z</time>
      </trkpt>
      <trkpt lat="42.47804" lon="2.60134">
        <ele>742</ele>
        <time>2005-10-30T13:31:33Z</time>
      </trkpt>
      <trkpt lat="42.47793" lon="2.60228">
        <ele>740</ele>
        <time>2005-10-30T13:31:54Z</time>
      </trkpt>
      <trkpt lat="42.47752" lon="2.60331">
        <ele>726</ele>
        <time>2005-10-30T13:32:38Z</time>
      </trkpt>
      <trkpt lat="42.47739" lon="2.60427">
        <ele>716</ele>
        <time>2005-10-30T13:33:16Z</time>
      </trkpt>
      <trkpt lat="42.4769" lon="2.60494">
        <ele>708</ele>
        <time>2005-10-30T13:33:46Z</time>
      </trkpt>
      <trkpt lat="42.47688" lon="2.60565">
        <ele>689</ele>
        <time>2005-10-30T13:34:44Z</time>
      </trkpt>
      <trkpt lat="42.47626" lon="2.60642">
        <ele>666</ele>
        <time>2005-10-30T13:35:31Z</time>
      </trkpt>
      <trkpt lat="42.47568" lon="2.60691">
        <ele>636</ele>
        <time>2005-10-30T13:37:28Z</time>
      </trkpt>
      <trkpt lat="42.47538" lon="2.60818">
        <ele>642</ele>
        <time>2005-10-30T13:41:52Z</time>
      </trkpt>
      <trkpt lat="42.47424" lon="2.60906">
        <ele>637</ele>
        <time>2005-10-30T13:42:19Z</time>
      </trkpt>
      <trkpt lat="42.47302" lon="2.61168">
        <ele>609</ele>
        <time>2005-10-30T13:43:07Z</time>
      </trkpt>
      <trkpt lat="42.47263" lon="2.61202">
        <ele>602</ele>
        <time>2005-10-30T13:43:25Z</time>
      </trkpt>
      <trkpt lat="42.47239" lon="2.61249">
        <ele>587</ele>
        <time>2005-10-30T13:44:19Z</time>
      </trkpt>
      <trkpt lat="42.47169" lon="2.61281">
        <ele>579</ele>
        <time>2005-10-30T13:44:40Z</time>
      </trkpt>
      <trkpt lat="42.47147" lon="2.61344">
        <ele>574</ele>
        <time>2005-10-30T13:44:59Z</time>
      </trkpt>
      <trkpt lat="42.47106" lon="2.61378">
        <ele>563</ele>
        <time>2005-10-30T13:45:20Z</time>
      </trkpt>
      <trkpt lat="42.47113" lon="2.61406">
        <ele>552</ele>
        <time>2005-10-30T13:46:21Z</time>
      </trkpt>
      <trkpt lat="42.47096" lon="2.61412">
        <ele>543</ele>
        <time>2005-10-30T13:47:01Z</time>
      </trkpt>
      <trkpt lat="42.47085" lon="2.61442">
        <ele>537</ele>
        <time>2005-10-30T13:47:22Z</time>
      </trkpt>
      <trkpt lat="42.47085" lon="2.61485">
        <ele>531</ele>
        <time>2005-10-30T13:47:38Z</time>
      </trkpt>
      <trkpt lat="42.47046" lon="2.61535">
        <ele>523</ele>
        <time>2005-10-30T13:48:44Z</time>
      </trkpt>
      <trkpt lat="42.47025" lon="2.61595">
        <ele>513</ele>
        <time>2005-10-30T13:49:05Z</time>
      </trkpt>
      <trkpt lat="42.4693" lon="2.61698">
        <ele>497</ele>
        <time>2005-10-30T13:50:44Z</time>
      </trkpt>
      <trkpt lat="42.46862" lon="2.61818">
        <ele>494</ele>
        <time>2005-10-30T13:51:10Z</time>
      </trkpt>
      <trkpt lat="42.46772" lon="2.6193">
        <ele>491</ele>
        <time>2005-10-30T13:51:30Z</time>
      </trkpt>
      <trkpt lat="42.4669" lon="2.62058">
        <ele>486</ele>
        <time>2005-10-30T13:51:54Z</time>
      </trkpt>
      <trkpt lat="42.4663" lon="2.62234">
        <ele>481</ele>
        <time>2005-10-30T13:52:24Z</time>
      </trkpt>
      <trkpt lat="42.46617" lon="2.62378">
        <ele>473</ele>
        <time>2005-10-30T13:53:02Z</time>
      </trkpt>
      <trkpt lat="42.46557" lon="2.62539">
        <ele>461</ele>
        <time>2005-10-30T13:54:20Z</time>
      </trkpt>
      <trkpt lat="42.46475" lon="2.62672">
        <ele>457</ele>
        <time>2005-10-30T13:54:40Z</time>
      </trkpt>
      <trkpt lat="42.46439" lon="2.62771">
        <ele>453</ele>
        <time>2005-10-30T13:54:58Z</time>
      </trkpt>
      <trkpt lat="42.46368" lon="2.62861">
        <ele>449</ele>
        <time>2005-10-30T13:55:18Z</time>
      </trkpt>
      <trkpt lat="42.4633" lon="2.62953">
        <ele>449</ele>
        <time>2005-10-30T13:55:30Z</time>
      </trkpt>
      <trkpt lat="42.46209" lon="2.63069">
        <ele>439</ele>
        <time>2005-10-30T13:56:18Z</time>
      </trkpt>
      <trkpt lat="42.46212" lon="2.63157">
        <ele>426</ele>
        <time>2005-10-30T13:56:55Z</time>
      </trkpt>
      <trkpt lat="42.46156" lon="2.63273">
        <ele>413</ele>
        <time>2005-10-30T13:57:32Z</time>
      </trkpt>
      <trkpt lat="42.46154" lon="2.63359">
        <ele>401</ele>
        <time>2005-10-30T13:57:54Z</time>
      </trkpt>
      <trkpt lat="42.46169" lon="2.63423">
        <ele>381</ele>
        <time>2005-10-30T13:58:57Z</time>
      </trkpt>
      <trkpt lat="42.46117" lon="2.63361">
        <ele>379</ele>
        <time>2005-10-30T13:59:29Z</time>
      </trkpt>
      <trkpt lat="42.46083" lon="2.63258">
        <ele>382</ele>
        <time>2005-10-30T13:59:51Z</time>
      </trkpt>
      <trkpt lat="42.46089" lon="2.63211">
        <ele>383</ele>
        <time>2005-10-30T13:59:59Z</time>
      </trkpt>
      <trkpt lat="42.46126" lon="2.6314">
        <ele>382</ele>
        <time>2005-10-30T14:00:11Z</time>
      </trkpt>
      <trkpt lat="42.46119" lon="2.63118">
        <ele>382</ele>
        <time>2005-10-30T14:00:15Z</time>
      </trkpt>
      <trkpt lat="42.46051" lon="2.63086">
        <ele>388</ele>
        <time>2005-10-30T14:00:37Z</time>
      </trkpt>
      <trkpt lat="42.46059" lon="2.63101">
        <ele>388</ele>
        <time>2005-10-30T14:00:53Z</time>
      </trkpt>
      <trkpt lat="42.46008" lon="2.63142">
        <ele>370</ele>
        <time>2005-10-30T14:01:34Z</time>
      </trkpt>
      <trkpt lat="42.45997" lon="2.63221">
        <ele>358</ele>
        <time>2005-10-30T14:02:05Z</time>
      </trkpt>
      <trkpt lat="42.45866" lon="2.63292">
        <ele>335</ele>
        <time>2005-10-30T14:02:37Z</time>
      </trkpt>
      <trkpt lat="42.45842" lon="2.63283">
        <ele>331</ele>
        <time>2005-10-30T14:02:41Z</time>
      </trkpt>
      <trkpt lat="42.45793" lon="2.63202">
        <ele>324</ele>
        <time>2005-10-30T14:02:54Z</time>
      </trkpt>
      <trkpt lat="42.45722" lon="2.63123">
        <ele>314</ele>
        <time>2005-10-30T14:03:15Z</time>
      </trkpt>
      <trkpt lat="42.45742" lon="2.63241">
        <ele>306</ele>
        <time>2005-10-30T14:03:29Z</time>
      </trkpt>
      <trkpt lat="42.45673" lon="2.6329">
        <ele>299</ele>
        <time>2005-10-30T14:03:43Z</time>
      </trkpt>
      <trkpt lat="42.45664" lon="2.63311">
        <ele>299</ele>
        <time>2005-10-30T14:03:46Z</time>
      </trkpt>
      <trkpt lat="42.45615" lon="2.63356">
        <ele>299</ele>
        <time>2005-10-30T14:04:01Z</time>
      </trkpt>
      <trkpt lat="42.45566" lon="2.63438">
        <ele>296</ele>
        <time>2005-10-30T14:04:14Z</time>
      </trkpt>
      <trkpt lat="42.45568" lon="2.63537">
        <ele>294</ele>
        <time>2005-10-30T14:04:24Z</time>
      </trkpt>
      <trkpt lat="42.45628" lon="2.63584">
        <ele>293</ele>
        <time>2005-10-30T14:04:34Z</time>
      </trkpt>
      <trkpt lat="42.45632" lon="2.63623">
        <ele>290</ele>
        <time>2005-10-30T14:04:39Z</time>
      </trkpt>
      <trkpt lat="42.45651" lon="2.63642">
        <ele>286</ele>
        <time>2005-10-30T14:04:43Z</time>
      </trkpt>
      <trkpt lat="42.45724" lon="2.63625">
        <ele>282</ele>
        <time>2005-10-30T14:04:54Z</time>
      </trkpt>
      <trkpt lat="42.459" lon="2.63661">
        <ele>277</ele>
        <time>2005-10-30T14:05:21Z</time>
      </trkpt>
      <trkpt lat="42.46021" lon="2.63713">
        <ele>275</ele>
        <time>2005-10-30T14:05:41Z</time>
      </trkpt>
      <trkpt lat="42.46124" lon="2.63698">
        <ele>275</ele>
        <time>2005-10-30T14:05:58Z</time>
      </trkpt>
      <trkpt lat="42.46254" lon="2.63831">
        <ele>272</ele>
        <time>2005-10-30T14:07:52Z</time>
      </trkpt>
    </trkseg>
  </trk>
</gpx>